CheckWX is a tool to help pilots better visualize weather data.  It is not intended as a substitute for an official pre-flight weather briefing.

19:53:48 UTC

KHAF METAR
Half Moon Bay Airport
Half Moon Bay, California, USA
Current

19 mins ago

KHAF 061935Z AUTO 34014G21KT 7SM CLR 17/10 A3004 RMK AO2
Observed
Jul-6 @ 19:35 UTC
Wind
  • 340° at 14 KTS
  • Gusting to 21 KTS
Visibility
7 SM
Flight Rules
VFR
Cloud Levels
  • Clear skies
Temperature
17°C / 63°F
Dewpoint
10°C / 50°F
Humidity
64%
Altimeter
30.04" Hg
Pressure
1017.32 hPa
Previous

39 mins ago

KHAF 061915Z AUTO 33018G22KT 8SM CLR 17/10 A3004 RMK AO2
Observed
Jul-6 @ 19:15 UTC
Wind
  • 330° at 18 KTS
  • Gusting to 22 KTS
Visibility
8 SM
Flight Rules
VFR
Cloud Levels
  • Clear skies
Temperature
17°C / 63°F
Dewpoint
10°C / 50°F
Humidity
64%
Altimeter
30.04" Hg
Pressure
1017.32 hPa
Previous

54 mins ago

KHAF 061900Z AUTO 32016G20KT 8SM CLR 16/11 A3004 RMK AO2
Observed
Jul-6 @ 19:00 UTC
Wind
  • 320° at 16 KTS
  • Gusting to 20 KTS
Visibility
8 SM
Flight Rules
VFR
Cloud Levels
  • Clear skies
Temperature
16°C / 61°F
Dewpoint
11°C / 52°F
Humidity
72%
Altimeter
30.04" Hg
Pressure
1017.32 hPa